sensor_id;sensor_type;location;lat;lon;timestamp;P1;durP1;ratioP1;P2;durP2;ratioP2
46222;SDS011;31943;51.410;7.564;2023-04-03T00:01:04;3.33;;;2.20;;
46222;SDS011;31943;51.410;7.564;2023-04-03T00:03:30;4.13;;;2.17;;
46222;SDS011;31943;51.410;7.564;2023-04-03T00:05:56;3.25;;;2.15;;
46222;SDS011;31943;51.410;7.564;2023-04-03T00:08:23;5.20;;;2.08;;
46222;SDS011;31943;51.410;7.564;2023-04-03T00:10:49;3.67;;;2.13;;
46222;SDS011;31943;51.410;7.564;2023-04-03T00:13:15;2.53;;;2.20;;
46222;SDS011;31943;51.410;7.564;2023-04-03T00:15:51;3.28;;;2.08;;
46222;SDS011;31943;51.410;7.564;2023-04-03T00:18:30;2.85;;;2.30;;
46222;SDS011;31943;51.410;7.564;2023-04-03T00:20:56;4.20;;;2.35;;
46222;SDS011;31943;51.410;7.564;2023-04-03T00:23:23;3.70;;;2.40;;
46222;SDS011;31943;51.410;7.564;2023-04-03T00:25:50;5.60;;;2.63;;
46222;SDS011;31943;51.410;7.564;2023-04-03T00:28:16;4.80;;;2.40;;
46222;SDS011;31943;51.410;7.564;2023-04-03T00:30:41;4.28;;;2.40;;
46222;SDS011;31943;51.410;7.564;2023-04-03T00:33:09;3.00;;;2.17;;
46222;SDS011;31943;51.410;7.564;2023-04-03T00:35:36;2.85;;;2.47;;
46222;SDS011;31943;51.410;7.564;2023-04-03T00:38:02;3.88;;;2.70;;
46222;SDS011;31943;51.410;7.564;2023-04-03T00:40:41;3.53;;;2.60;;
46222;SDS011;31943;51.410;7.564;2023-04-03T00:43:10;2.85;;;2.47;;
46222;SDS011;31943;51.410;7.564;2023-04-03T00:45:38;3.38;;;2.38;;
46222;SDS011;31943;51.410;7.564;2023-04-03T00:48:07;3.42;;;2.25;;
46222;SDS011;31943;51.410;7.564;2023-04-03T00:50:40;4.07;;;2.33;;
46222;SDS011;31943;51.410;7.564;2023-04-03T00:53:08;3.55;;;2.15;;
46222;SDS011;31943;51.410;7.564;2023-04-03T00:55:44;3.38;;;2.30;;
46222;SDS011;31943;51.410;7.564;2023-04-03T00:58:11;3.78;;;2.42;;
46222;SDS011;31943;51.410;7.564;2023-04-03T01:00:40;2.90;;;2.60;;
46222;SDS011;31943;51.410;7.564;2023-04-03T01:05:40;4.25;;;2.97;;
46222;SDS011;31943;51.410;7.564;2023-04-03T01:08:06;3.75;;;2.97;;
46222;SDS011;31943;51.410;7.564;2023-04-03T01:10:32;4.15;;;2.58;;
46222;SDS011;31943;51.410;7.564;2023-04-03T01:13:17;3.45;;;2.60;;
46222;SDS011;31943;51.410;7.564;2023-04-03T01:15:47;4.30;;;2.70;;
46222;SDS011;31943;51.410;7.564;2023-04-03T01:18:13;2.95;;;2.53;;
46222;SDS011;31943;51.410;7.564;2023-04-03T01:20:56;5.13;;;2.67;;
46222;SDS011;31943;51.410;7.564;2023-04-03T01:23:47;5.07;;;3.10;;
46222;SDS011;31943;51.410;7.564;2023-04-03T01:26:25;5.97;;;2.75;;
46222;SDS011;31943;51.410;7.564;2023-04-03T01:28:58;5.47;;;2.90;;
46222;SDS011;31943;51.410;7.564;2023-04-03T01:31:25;4.75;;;3.00;;
46222;SDS011;31943;51.410;7.564;2023-04-03T01:33:58;4.35;;;2.95;;
46222;SDS011;31943;51.410;7.564;2023-04-03T01:36:25;3.13;;;2.83;;
46222;SDS011;31943;51.410;7.564;2023-04-03T01:38:52;4.75;;;2.65;;
46222;SDS011;31943;51.410;7.564;2023-04-03T01:41:22;4.30;;;2.85;;
46222;SDS011;31943;51.410;7.564;2023-04-03T01:43:49;3.67;;;2.80;;
46222;SDS011;31943;51.410;7.564;2023-04-03T01:46:18;5.40;;;3.47;;
46222;SDS011;31943;51.410;7.564;2023-04-03T01:48:48;3.25;;;2.70;;
46222;SDS011;31943;51.410;7.564;2023-04-03T01:51:15;4.28;;;2.78;;
46222;SDS011;31943;51.410;7.564;2023-04-03T01:53:41;3.08;;;2.80;;
46222;SDS011;31943;51.410;7.564;2023-04-03T01:56:08;4.18;;;2.95;;
46222;SDS011;31943;51.410;7.564;2023-04-03T01:58:34;5.72;;;2.60;;
46222;SDS011;31943;51.410;7.564;2023-04-03T02:01:00;4.65;;;3.20;;
46222;SDS011;31943;51.410;7.564;2023-04-03T02:03:28;3.38;;;2.60;;
46222;SDS011;31943;51.410;7.564;2023-04-03T02:05:53;4.43;;;3.30;;
46222;SDS011;31943;51.410;7.564;2023-04-03T02:08:26;5.63;;;3.95;;
46222;SDS011;31943;51.410;7.564;2023-04-03T02:10:57;6.63;;;3.58;;
46222;SDS011;31943;51.410;7.564;2023-04-03T02:13:23;4.95;;;3.80;;
46222;SDS011;31943;51.410;7.564;2023-04-03T02:15:51;6.63;;;4.50;;
46222;SDS011;31943;51.410;7.564;2023-04-03T02:18:20;4.25;;;3.85;;
46222;SDS011;31943;51.410;7.564;2023-04-03T02:20:47;5.05;;;3.80;;
46222;SDS011;31943;51.410;7.564;2023-04-03T02:23:14;5.43;;;4.00;;
46222;SDS011;31943;51.410;7.564;2023-04-03T02:25:44;5.68;;;3.63;;
46222;SDS011;31943;51.410;7.564;2023-04-03T02:30:37;5.63;;;3.97;;
46222;SDS011;31943;51.410;7.564;2023-04-03T02:33:05;4.93;;;3.80;;
46222;SDS011;31943;51.410;7.564;2023-04-03T02:35:31;5.78;;;4.47;;
46222;SDS011;31943;51.410;7.564;2023-04-03T02:37:56;5.75;;;3.83;;
46222;SDS011;31943;51.410;7.564;2023-04-03T02:40:27;7.57;;;4.47;;
46222;SDS011;31943;51.410;7.564;2023-04-03T02:42:58;4.45;;;4.03;;
46222;SDS011;31943;51.410;7.564;2023-04-03T02:45:24;6.77;;;4.70;;
46222;SDS011;31943;51.410;7.564;2023-04-03T02:47:51;5.85;;;4.10;;
46222;SDS011;31943;51.410;7.564;2023-04-03T02:50:18;5.50;;;4.28;;
46222;SDS011;31943;51.410;7.564;2023-04-03T02:52:44;4.68;;;4.20;;
46222;SDS011;31943;51.410;7.564;2023-04-03T02:55:13;6.63;;;4.05;;
46222;SDS011;31943;51.410;7.564;2023-04-03T02:57:42;5.05;;;4.35;;
46222;SDS011;31943;51.410;7.564;2023-04-03T03:00:12;5.22;;;4.10;;
46222;SDS011;31943;51.410;7.564;2023-04-03T03:02:39;5.85;;;4.38;;
46222;SDS011;31943;51.410;7.564;2023-04-03T03:05:08;6.95;;;4.40;;
46222;SDS011;31943;51.410;7.564;2023-04-03T03:07:33;6.55;;;4.35;;
46222;SDS011;31943;51.410;7.564;2023-04-03T03:10:03;5.82;;;4.68;;
46222;SDS011;31943;51.410;7.564;2023-04-03T03:12:29;5.60;;;3.90;;
46222;SDS011;31943;51.410;7.564;2023-04-03T03:14:58;9.40;;;4.55;;
46222;SDS011;31943;51.410;7.564;2023-04-03T03:17:26;5.53;;;4.63;;
46222;SDS011;31943;51.410;7.564;2023-04-03T03:19:51;6.82;;;5.40;;
46222;SDS011;31943;51.410;7.564;2023-04-03T03:22:19;5.97;;;5.38;;
46222;SDS011;31943;51.410;7.564;2023-04-03T03:24:49;7.80;;;4.95;;
46222;SDS011;31943;51.410;7.564;2023-04-03T03:27:15;6.30;;;4.88;;
46222;SDS011;31943;51.410;7.564;2023-04-03T03:29:41;6.97;;;4.78;;
46222;SDS011;31943;51.410;7.564;2023-04-03T03:32:06;5.00;;;4.20;;
46222;SDS011;31943;51.410;7.564;2023-04-03T03:34:33;5.72;;;3.92;;
46222;SDS011;31943;51.410;7.564;2023-04-03T03:37:01;5.82;;;4.03;;
46222;SDS011;31943;51.410;7.564;2023-04-03T03:39:27;6.32;;;3.58;;
46222;SDS011;31943;51.410;7.564;2023-04-03T03:41:53;4.47;;;3.30;;
46222;SDS011;31943;51.410;7.564;2023-04-03T03:44:19;5.03;;;3.20;;
46222;SDS011;31943;51.410;7.564;2023-04-03T03:46:46;5.85;;;3.60;;
46222;SDS011;31943;51.410;7.564;2023-04-03T03:49:12;5.30;;;3.38;;
46222;SDS011;31943;51.410;7.564;2023-04-03T03:51:39;5.13;;;3.35;;
46222;SDS011;31943;51.410;7.564;2023-04-03T03:54:05;4.05;;;3.30;;
46222;SDS011;31943;51.410;7.564;2023-04-03T03:56:33;6.05;;;3.13;;
46222;SDS011;31943;51.410;7.564;2023-04-03T03:59:03;4.53;;;3.30;;
46222;SDS011;31943;51.410;7.564;2023-04-03T04:01:29;3.00;;;2.70;;
46222;SDS011;31943;51.410;7.564;2023-04-03T04:03:55;3.85;;;2.75;;
46222;SDS011;31943;51.410;7.564;2023-04-03T04:06:20;4.25;;;2.50;;
46222;SDS011;31943;51.410;7.564;2023-04-03T04:08:48;2.95;;;2.30;;
46222;SDS011;31943;51.410;7.564;2023-04-03T04:11:14;2.97;;;2.25;;
46222;SDS011;31943;51.410;7.564;2023-04-03T04:13:39;4.10;;;2.35;;
46222;SDS011;31943;51.410;7.564;2023-04-03T04:16:05;4.57;;;2.72;;
46222;SDS011;31943;51.410;7.564;2023-04-03T04:18:32;3.63;;;2.30;;
46222;SDS011;31943;51.410;7.564;2023-04-03T04:20:57;5.20;;;2.65;;
46222;SDS011;31943;51.410;7.564;2023-04-03T04:23:23;3.47;;;2.80;;
46222;SDS011;31943;51.410;7.564;2023-04-03T04:25:51;5.00;;;2.08;;
46222;SDS011;31943;51.410;7.564;2023-04-03T04:28:16;4.97;;;1.90;;
46222;SDS011;31943;51.410;7.564;2023-04-03T04:30:42;5.13;;;2.40;;
46222;SDS011;31943;51.410;7.564;2023-04-03T04:33:09;5.22;;;2.08;;
46222;SDS011;31943;51.410;7.564;2023-04-03T04:35:35;4.05;;;1.95;;
46222;SDS011;31943;51.410;7.564;2023-04-03T04:38:00;5.20;;;2.03;;
46222;SDS011;31943;51.410;7.564;2023-04-03T04:40:27;3.63;;;1.77;;
46222;SDS011;31943;51.410;7.564;2023-04-03T04:42:54;5.03;;;1.85;;
46222;SDS011;31943;51.410;7.564;2023-04-03T04:45:21;5.13;;;2.55;;
46222;SDS011;31943;51.410;7.564;2023-04-03T04:47:47;5.97;;;2.28;;
46222;SDS011;31943;51.410;7.564;2023-04-03T04:50:13;3.50;;;1.95;;
46222;SDS011;31943;51.410;7.564;2023-04-03T04:52:39;2.80;;;1.80;;
46222;SDS011;31943;51.410;7.564;2023-04-03T04:55:05;2.35;;;1.45;;
46222;SDS011;31943;51.410;7.564;2023-04-03T04:57:32;4.72;;;2.35;;
46222;SDS011;31943;51.410;7.564;2023-04-03T05:00:00;5.05;;;1.65;;
46222;SDS011;31943;51.410;7.564;2023-04-03T05:02:32;5.10;;;2.00;;
46222;SDS011;31943;51.410;7.564;2023-04-03T05:04:59;4.43;;;1.80;;
46222;SDS011;31943;51.410;7.564;2023-04-03T05:07:25;4.60;;;1.85;;
46222;SDS011;31943;51.410;7.564;2023-04-03T05:09:51;4.32;;;1.83;;
46222;SDS011;31943;51.410;7.564;2023-04-03T05:12:21;4.72;;;1.65;;
46222;SDS011;31943;51.410;7.564;2023-04-03T05:14:47;4.78;;;1.80;;
46222;SDS011;31943;51.410;7.564;2023-04-03T05:17:14;6.75;;;2.20;;
46222;SDS011;31943;51.410;7.564;2023-04-03T05:19:40;5.68;;;1.60;;
46222;SDS011;31943;51.410;7.564;2023-04-03T05:22:07;6.68;;;2.10;;
46222;SDS011;31943;51.410;7.564;2023-04-03T05:24:33;5.50;;;1.75;;
46222;SDS011;31943;51.410;7.564;2023-04-03T05:26:58;4.88;;;2.28;;
46222;SDS011;31943;51.410;7.564;2023-04-03T05:29:24;3.10;;;2.08;;
46222;SDS011;31943;51.410;7.564;2023-04-03T05:31:50;5.07;;;2.55;;
46222;SDS011;31943;51.410;7.564;2023-04-03T05:34:17;7.22;;;2.58;;
46222;SDS011;31943;51.410;7.564;2023-04-03T05:36:48;5.47;;;2.22;;
46222;SDS011;31943;51.410;7.564;2023-04-03T05:39:19;6.30;;;2.67;;
46222;SDS011;31943;51.410;7.564;2023-04-03T05:41:53;10.50;;;3.17;;
46222;SDS011;31943;51.410;7.564;2023-04-03T05:44:19;8.85;;;3.45;;
46222;SDS011;31943;51.410;7.564;2023-04-03T05:46:45;6.32;;;2.58;;
46222;SDS011;31943;51.410;7.564;2023-04-03T05:49:10;7.65;;;3.20;;
46222;SDS011;31943;51.410;7.564;2023-04-03T05:51:39;11.10;;;3.70;;
46222;SDS011;31943;51.410;7.564;2023-04-03T05:54:08;9.05;;;3.42;;
46222;SDS011;31943;51.410;7.564;2023-04-03T05:56:37;9.15;;;3.63;;
46222;SDS011;31943;51.410;7.564;2023-04-03T05:59:02;9.00;;;3.70;;
46222;SDS011;31943;51.410;7.564;2023-04-03T06:01:28;12.65;;;4.28;;
46222;SDS011;31943;51.410;7.564;2023-04-03T06:03:54;9.00;;;3.40;;
46222;SDS011;31943;51.410;7.564;2023-04-03T06:06:20;8.60;;;3.10;;
46222;SDS011;31943;51.410;7.564;2023-04-03T06:08:47;7.47;;;3.00;;
46222;SDS011;31943;51.410;7.564;2023-04-03T06:11:13;7.63;;;3.35;;
46222;SDS011;31943;51.410;7.564;2023-04-03T06:13:38;5.63;;;2.88;;
46222;SDS011;31943;51.410;7.564;2023-04-03T06:16:06;5.95;;;2.50;;
46222;SDS011;31943;51.410;7.564;2023-04-03T06:18:32;8.07;;;2.80;;
46222;SDS011;31943;51.410;7.564;2023-04-03T06:20:57;8.27;;;2.90;;
46222;SDS011;31943;51.410;7.564;2023-04-03T06:23:23;7.13;;;2.65;;
46222;SDS011;31943;51.410;7.564;2023-04-03T06:25:51;5.47;;;2.30;;
46222;SDS011;31943;51.410;7.564;2023-04-03T06:28:18;6.18;;;2.60;;
46222;SDS011;31943;51.410;7.564;2023-04-03T06:30:45;8.07;;;2.22;;
46222;SDS011;31943;51.410;7.564;2023-04-03T06:33:11;4.45;;;2.38;;
46222;SDS011;31943;51.410;7.564;2023-04-03T06:35:40;4.38;;;2.05;;
46222;SDS011;31943;51.410;7.564;2023-04-03T06:38:06;7.72;;;2.90;;
46222;SDS011;31943;51.410;7.564;2023-04-03T06:40:32;7.35;;;2.08;;
46222;SDS011;31943;51.410;7.564;2023-04-03T06:43:03;7.70;;;2.33;;
46222;SDS011;31943;51.410;7.564;2023-04-03T06:45:37;4.05;;;2.60;;
46222;SDS011;31943;51.410;7.564;2023-04-03T06:48:04;6.20;;;2.35;;
46222;SDS011;31943;51.410;7.564;2023-04-03T06:50:30;5.28;;;1.90;;
46222;SDS011;31943;51.410;7.564;2023-04-03T06:52:57;6.28;;;2.42;;
46222;SDS011;31943;51.410;7.564;2023-04-03T06:55:27;5.18;;;2.13;;
46222;SDS011;31943;51.410;7.564;2023-04-03T06:57:59;7.43;;;2.28;;
46222;SDS011;31943;51.410;7.564;2023-04-03T07:03:08;7.88;;;2.30;;
46222;SDS011;31943;51.410;7.564;2023-04-03T07:05:37;6.97;;;2.22;;
46222;SDS011;31943;51.410;7.564;2023-04-03T07:08:03;3.90;;;1.83;;
46222;SDS011;31943;51.410;7.564;2023-04-03T07:10:35;5.10;;;1.60;;
46222;SDS011;31943;51.410;7.564;2023-04-03T07:13:03;7.60;;;2.20;;
46222;SDS011;31943;51.410;7.564;2023-04-03T07:15:29;5.72;;;1.88;;
46222;SDS011;31943;51.410;7.564;2023-04-03T07:17:59;6.30;;;2.40;;
46222;SDS011;31943;51.410;7.564;2023-04-03T07:20:25;8.05;;;1.70;;
46222;SDS011;31943;51.410;7.564;2023-04-03T07:22:51;6.70;;;1.90;;
46222;SDS011;31943;51.410;7.564;2023-04-03T07:25:17;7.07;;;1.85;;
46222;SDS011;31943;51.410;7.564;2023-04-03T07:27:42;5.25;;;1.60;;
46222;SDS011;31943;51.410;7.564;2023-04-03T07:30:09;4.75;;;1.38;;
46222;SDS011;31943;51.410;7.564;2023-04-03T07:32:35;6.00;;;1.45;;
46222;SDS011;31943;51.410;7.564;2023-04-03T07:35:03;5.32;;;1.88;;
46222;SDS011;31943;51.410;7.564;2023-04-03T07:37:44;5.95;;;1.70;;
46222;SDS011;31943;51.410;7.564;2023-04-03T07:40:10;6.80;;;1.77;;
46222;SDS011;31943;51.410;7.564;2023-04-03T07:42:36;4.63;;;1.73;;
46222;SDS011;31943;51.410;7.564;2023-04-03T07:45:02;3.92;;;1.33;;
46222;SDS011;31943;51.410;7.564;2023-04-03T07:47:29;4.38;;;1.65;;
46222;SDS011;31943;51.410;7.564;2023-04-03T07:49:58;6.05;;;1.75;;
46222;SDS011;31943;51.410;7.564;2023-04-03T07:52:25;8.13;;;1.83;;
46222;SDS011;31943;51.410;7.564;2023-04-03T07:54:51;5.00;;;1.77;;
46222;SDS011;31943;51.410;7.564;2023-04-03T07:57:17;3.40;;;1.38;;
46222;SDS011;31943;51.410;7.564;2023-04-03T07:59:45;3.92;;;1.35;;
46222;SDS011;31943;51.410;7.564;2023-04-03T08:02:11;3.97;;;1.58;;
46222;SDS011;31943;51.410;7.564;2023-04-03T08:04:37;3.85;;;1.92;;
46222;SDS011;31943;51.410;7.564;2023-04-03T08:07:04;7.00;;;1.58;;
46222;SDS011;31943;51.410;7.564;2023-04-03T08:09:39;6.60;;;3.20;;
46222;SDS011;31943;51.410;7.564;2023-04-03T08:12:06;5.20;;;2.40;;
46222;SDS011;31943;51.410;7.564;2023-04-03T08:14:34;6.05;;;1.92;;
46222;SDS011;31943;51.410;7.564;2023-04-03T08:17:00;5.55;;;1.63;;
46222;SDS011;31943;51.410;7.564;2023-04-03T08:19:26;8.23;;;1.65;;
46222;SDS011;31943;51.410;7.564;2023-04-03T08:21:56;4.95;;;1.77;;
46222;SDS011;31943;51.410;7.564;2023-04-03T08:24:23;4.72;;;1.45;;
46222;SDS011;31943;51.410;7.564;2023-04-03T08:26:53;4.35;;;1.67;;
46222;SDS011;31943;51.410;7.564;2023-04-03T08:29:19;3.60;;;1.60;;
46222;SDS011;31943;51.410;7.564;2023-04-03T08:31:46;5.45;;;1.73;;
46222;SDS011;31943;51.410;7.564;2023-04-03T08:34:12;2.88;;;1.33;;
46222;SDS011;31943;51.410;7.564;2023-04-03T08:36:38;4.30;;;1.33;;
46222;SDS011;31943;51.410;7.564;2023-04-03T08:39:06;4.50;;;1.60;;
46222;SDS011;31943;51.410;7.564;2023-04-03T08:41:33;4.45;;;1.45;;
46222;SDS011;31943;51.410;7.564;2023-04-03T08:44:04;3.88;;;1.52;;
46222;SDS011;31943;51.410;7.564;2023-04-03T08:46:40;5.15;;;2.38;;
46222;SDS011;31943;51.410;7.564;2023-04-03T08:49:21;6.70;;;1.83;;
46222;SDS011;31943;51.410;7.564;2023-04-03T08:51:52;3.90;;;1.60;;
46222;SDS011;31943;51.410;7.564;2023-04-03T08:54:22;4.20;;;1.60;;
46222;SDS011;31943;51.410;7.564;2023-04-03T08:56:52;3.08;;;1.30;;
46222;SDS011;31943;51.410;7.564;2023-04-03T08:59:24;6.80;;;1.65;;
46222;SDS011;31943;51.410;7.564;2023-04-03T09:01:53;2.55;;;1.30;;
46222;SDS011;31943;51.410;7.564;2023-04-03T09:04:20;3.70;;;1.27;;
46222;SDS011;31943;51.410;7.564;2023-04-03T09:06:49;4.13;;;1.60;;
46222;SDS011;31943;51.410;7.564;2023-04-03T09:09:23;4.25;;;1.65;;
46222;SDS011;31943;51.410;7.564;2023-04-03T09:12:00;2.58;;;1.02;;
46222;SDS011;31943;51.410;7.564;2023-04-03T09:14:36;4.63;;;1.20;;
46222;SDS011;31943;51.410;7.564;2023-04-03T09:17:09;3.80;;;0.90;;
46222;SDS011;31943;51.410;7.564;2023-04-03T09:19:41;3.97;;;1.60;;
46222;SDS011;31943;51.410;7.564;2023-04-03T09:22:18;3.67;;;1.38;;
46222;SDS011;31943;51.410;7.564;2023-04-03T09:24:47;2.92;;;1.45;;
46222;SDS011;31943;51.410;7.564;2023-04-03T09:27:17;3.72;;;1.25;;
46222;SDS011;31943;51.410;7.564;2023-04-03T09:29:48;3.15;;;0.95;;
46222;SDS011;31943;51.410;7.564;2023-04-03T09:32:21;3.60;;;1.25;;
46222;SDS011;31943;51.410;7.564;2023-04-03T09:34:50;5.75;;;1.25;;
46222;SDS011;31943;51.410;7.564;2023-04-03T09:40:06;10.48;;;1.45;;
46222;SDS011;31943;51.410;7.564;2023-04-03T09:43:01;4.22;;;1.73;;
46222;SDS011;31943;51.410;7.564;2023-04-03T09:45:46;3.85;;;1.20;;
46222;SDS011;31943;51.410;7.564;2023-04-03T09:48:15;5.03;;;1.60;;
46222;SDS011;31943;51.410;7.564;2023-04-03T09:50:57;2.63;;;1.20;;
46222;SDS011;31943;51.410;7.564;2023-04-03T09:53:31;3.67;;;1.13;;
46222;SDS011;31943;51.410;7.564;2023-04-03T09:56:03;3.38;;;0.93;;
46222;SDS011;31943;51.410;7.564;2023-04-03T09:58:31;3.90;;;0.90;;
46222;SDS011;31943;51.410;7.564;2023-04-03T10:01:01;2.72;;;0.95;;
46222;SDS011;31943;51.410;7.564;2023-04-03T10:03:29;1.83;;;0.85;;
46222;SDS011;31943;51.410;7.564;2023-04-03T10:05:58;2.05;;;0.88;;
46222;SDS011;31943;51.410;7.564;2023-04-03T10:08:29;2.88;;;1.13;;
46222;SDS011;31943;51.410;7.564;2023-04-03T10:11:07;2.88;;;1.00;;
46222;SDS011;31943;51.410;7.564;2023-04-03T10:13:36;3.35;;;0.90;;
46222;SDS011;31943;51.410;7.564;2023-04-03T10:16:17;2.55;;;0.90;;
46222;SDS011;31943;51.410;7.564;2023-04-03T10:18:48;3.70;;;0.98;;
46222;SDS011;31943;51.410;7.564;2023-04-03T10:21:26;3.20;;;1.10;;
46222;SDS011;31943;51.410;7.564;2023-04-03T10:24:01;2.58;;;1.08;;
46222;SDS011;31943;51.410;7.564;2023-04-03T10:26:35;3.50;;;1.00;;
46222;SDS011;31943;51.410;7.564;2023-04-03T10:29:10;3.08;;;0.90;;
46222;SDS011;31943;51.410;7.564;2023-04-03T10:31:48;2.55;;;1.00;;
46222;SDS011;31943;51.410;7.564;2023-04-03T10:34:24;3.85;;;0.70;;
46222;SDS011;31943;51.410;7.564;2023-04-03T10:36:55;2.25;;;0.65;;
46222;SDS011;31943;51.410;7.564;2023-04-03T10:39:28;1.52;;;0.63;;
46222;SDS011;31943;51.410;7.564;2023-04-03T10:42:03;2.10;;;0.68;;
46222;SDS011;31943;51.410;7.564;2023-04-03T10:44:37;4.72;;;0.70;;
46222;SDS011;31943;51.410;7.564;2023-04-03T10:47:17;1.38;;;0.55;;
46222;SDS011;31943;51.410;7.564;2023-04-03T10:49:50;4.05;;;0.85;;
46222;SDS011;31943;51.410;7.564;2023-04-03T10:52:22;3.92;;;0.98;;
46222;SDS011;31943;51.410;7.564;2023-04-03T10:54:56;1.30;;;0.63;;
46222;SDS011;31943;51.410;7.564;2023-04-03T10:57:32;1.77;;;0.70;;
46222;SDS011;31943;51.410;7.564;2023-04-03T10:59:59;4.43;;;0.70;;
46222;SDS011;31943;51.410;7.564;2023-04-03T11:02:29;1.83;;;0.63;;
46222;SDS011;31943;51.410;7.564;2023-04-03T11:04:59;1.98;;;0.60;;
46222;SDS011;31943;51.410;7.564;2023-04-03T11:07:29;2.28;;;0.65;;
46222;SDS011;31943;51.410;7.564;2023-04-03T11:10:03;2.10;;;1.00;;
46222;SDS011;31943;51.410;7.564;2023-04-03T11:12:36;2.65;;;0.65;;
46222;SDS011;31943;51.410;7.564;2023-04-03T11:15:11;5.07;;;0.93;;
46222;SDS011;31943;51.410;7.564;2023-04-03T11:17:48;3.03;;;0.80;;
46222;SDS011;31943;51.410;7.564;2023-04-03T11:20:21;2.97;;;0.93;;
46222;SDS011;31943;51.410;7.564;2023-04-03T11:22:52;1.73;;;0.70;;
46222;SDS011;31943;51.410;7.564;2023-04-03T11:25:24;4.72;;;0.80;;
46222;SDS011;31943;51.410;7.564;2023-04-03T11:27:54;4.13;;;0.80;;
46222;SDS011;31943;51.410;7.564;2023-04-03T11:30:22;2.45;;;0.82;;
46222;SDS011;31943;51.410;7.564;2023-04-03T11:32:56;2.35;;;0.70;;
46222;SDS011;31943;51.410;7.564;2023-04-03T11:35:30;1.45;;;0.60;;
46222;SDS011;31943;51.410;7.564;2023-04-03T11:37:59;3.13;;;0.73;;
46222;SDS011;31943;51.410;7.564;2023-04-03T11:40:28;2.78;;;1.00;;
46222;SDS011;31943;51.410;7.564;2023-04-03T11:43:02;2.55;;;0.95;;
46222;SDS011;31943;51.410;7.564;2023-04-03T11:45:36;1.67;;;0.80;;
46222;SDS011;31943;51.410;7.564;2023-04-03T11:48:41;1.92;;;0.82;;
46222;SDS011;31943;51.410;7.564;2023-04-03T11:57:22;1.58;;;0.80;;
46222;SDS011;31943;51.410;7.564;2023-04-03T12:03:32;2.55;;;0.70;;
46222;SDS011;31943;51.410;7.564;2023-04-03T12:09:22;5.20;;;1.17;;
46222;SDS011;31943;51.410;7.564;2023-04-03T12:11:49;2.38;;;0.90;;
46222;SDS011;31943;51.410;7.564;2023-04-03T12:14:16;2.38;;;0.85;;
46222;SDS011;31943;51.410;7.564;2023-04-03T12:16:42;4.18;;;0.82;;
46222;SDS011;31943;51.410;7.564;2023-04-03T12:19:35;1.70;;;0.90;;
46222;SDS011;31943;51.410;7.564;2023-04-03T12:24:48;2.40;;;0.75;;
46222;SDS011;31943;51.410;7.564;2023-04-03T12:30:15;2.75;;;0.77;;
46222;SDS011;31943;51.410;7.564;2023-04-03T12:33:04;3.92;;;0.82;;
46222;SDS011;31943;51.410;7.564;2023-04-03T12:35:50;1.88;;;0.82;;
46222;SDS011;31943;51.410;7.564;2023-04-03T12:41:27;2.13;;;0.98;;
46222;SDS011;31943;51.410;7.564;2023-04-03T12:44:05;2.47;;;0.70;;
46222;SDS011;31943;51.410;7.564;2023-04-03T12:46:52;2.90;;;1.10;;
46222;SDS011;31943;51.410;7.564;2023-04-03T12:49:26;2.30;;;0.88;;
46222;SDS011;31943;51.410;7.564;2023-04-03T12:52:06;2.80;;;1.00;;
46222;SDS011;31943;51.410;7.564;2023-04-03T12:54:44;3.35;;;0.80;;
46222;SDS011;31943;51.410;7.564;2023-04-03T12:57:12;3.22;;;0.73;;
46222;SDS011;31943;51.410;7.564;2023-04-03T12:59:41;2.80;;;1.00;;
46222;SDS011;31943;51.410;7.564;2023-04-03T13:02:15;2.22;;;1.08;;
46222;SDS011;31943;51.410;7.564;2023-04-03T13:04:49;3.42;;;1.10;;
46222;SDS011;31943;51.410;7.564;2023-04-03T13:07:24;3.95;;;1.10;;
46222;SDS011;31943;51.410;7.564;2023-04-03T13:09:56;4.22;;;1.60;;
46222;SDS011;31943;51.410;7.564;2023-04-03T13:12:24;2.40;;;1.13;;
46222;SDS011;31943;51.410;7.564;2023-04-03T13:14:51;3.60;;;1.13;;
46222;SDS011;31943;51.410;7.564;2023-04-03T13:17:18;3.35;;;1.35;;
46222;SDS011;31943;51.410;7.564;2023-04-03T13:19:45;2.35;;;0.57;;
46222;SDS011;31943;51.410;7.564;2023-04-03T13:22:18;4.82;;;1.27;;
46222;SDS011;31943;51.410;7.564;2023-04-03T13:24:54;2.50;;;1.10;;
46222;SDS011;31943;51.410;7.564;2023-04-03T13:27:22;2.60;;;1.02;;
46222;SDS011;31943;51.410;7.564;2023-04-03T13:29:51;3.08;;;1.20;;
46222;SDS011;31943;51.410;7.564;2023-04-03T13:32:20;3.95;;;0.90;;
46222;SDS011;31943;51.410;7.564;2023-04-03T13:34:48;1.40;;;0.77;;
46222;SDS011;31943;51.410;7.564;2023-04-03T13:37:22;2.75;;;1.00;;
46222;SDS011;31943;51.410;7.564;2023-04-03T13:39:58;1.50;;;0.80;;
46222;SDS011;31943;51.410;7.564;2023-04-03T13:42:26;3.67;;;1.10;;
46222;SDS011;31943;51.410;7.564;2023-04-03T13:45:11;2.20;;;0.70;;
46222;SDS011;31943;51.410;7.564;2023-04-03T13:47:45;1.95;;;0.70;;
46222;SDS011;31943;51.410;7.564;2023-04-03T13:50:13;3.10;;;1.08;;
46222;SDS011;31943;51.410;7.564;2023-04-03T13:52:45;3.28;;;0.82;;
46222;SDS011;31943;51.410;7.564;2023-04-03T13:55:21;1.98;;;1.00;;
46222;SDS011;31943;51.410;7.564;2023-04-03T14:00:19;2.75;;;1.23;;
46222;SDS011;31943;51.410;7.564;2023-04-03T14:02:57;1.90;;;0.80;;
46222;SDS011;31943;51.410;7.564;2023-04-03T14:05:23;1.15;;;0.90;;
46222;SDS011;31943;51.410;7.564;2023-04-03T14:07:51;3.10;;;0.70;;
46222;SDS011;31943;51.410;7.564;2023-04-03T14:10:17;3.17;;;0.90;;
46222;SDS011;31943;51.410;7.564;2023-04-03T14:12:45;3.45;;;1.08;;
46222;SDS011;31943;51.410;7.564;2023-04-03T14:15:14;3.72;;;1.10;;
46222;SDS011;31943;51.410;7.564;2023-04-03T14:17:45;2.10;;;0.80;;
46222;SDS011;31943;51.410;7.564;2023-04-03T14:20:14;3.88;;;0.93;;
46222;SDS011;31943;51.410;7.564;2023-04-03T14:22:41;2.53;;;0.88;;
46222;SDS011;31943;51.410;7.564;2023-04-03T14:25:07;2.35;;;0.90;;
46222;SDS011;31943;51.410;7.564;2023-04-03T14:27:38;5.28;;;1.13;;
46222;SDS011;31943;51.410;7.564;2023-04-03T14:30:20;5.60;;;1.20;;
46222;SDS011;31943;51.410;7.564;2023-04-03T14:32:51;2.33;;;0.88;;
46222;SDS011;31943;51.410;7.564;2023-04-03T14:35:21;3.10;;;1.10;;
46222;SDS011;31943;51.410;7.564;2023-04-03T14:37:48;3.35;;;0.90;;
46222;SDS011;31943;51.410;7.564;2023-04-03T14:40:16;2.42;;;0.88;;
46222;SDS011;31943;51.410;7.564;2023-04-03T14:42:44;1.92;;;0.77;;
46222;SDS011;31943;51.410;7.564;2023-04-03T14:45:11;4.38;;;1.00;;
46222;SDS011;31943;51.410;7.564;2023-04-03T14:47:41;3.53;;;0.85;;
46222;SDS011;31943;51.410;7.564;2023-04-03T14:50:12;1.90;;;0.75;;
46222;SDS011;31943;51.410;7.564;2023-04-03T14:52:40;2.58;;;0.77;;
46222;SDS011;31943;51.410;7.564;2023-04-03T14:55:06;3.30;;;1.00;;
46222;SDS011;31943;51.410;7.564;2023-04-03T14:57:32;2.53;;;1.05;;
46222;SDS011;31943;51.410;7.564;2023-04-03T14:59:59;3.15;;;1.00;;
46222;SDS011;31943;51.410;7.564;2023-04-03T15:02:27;2.83;;;0.90;;
46222;SDS011;31943;51.410;7.564;2023-04-03T15:04:54;2.15;;;1.05;;
46222;SDS011;31943;51.410;7.564;2023-04-03T15:07:20;2.17;;;0.90;;
46222;SDS011;31943;51.410;7.564;2023-04-03T15:09:46;2.90;;;1.05;;
46222;SDS011;31943;51.410;7.564;2023-04-03T15:12:12;3.72;;;1.10;;
46222;SDS011;31943;51.410;7.564;2023-04-03T15:14:38;3.67;;;1.10;;
46222;SDS011;31943;51.410;7.564;2023-04-03T15:17:03;5.93;;;1.30;;
46222;SDS011;31943;51.410;7.564;2023-04-03T15:19:32;4.25;;;1.00;;
46222;SDS011;31943;51.410;7.564;2023-04-03T15:22:01;3.65;;;1.38;;
46222;SDS011;31943;51.410;7.564;2023-04-03T15:24:27;2.38;;;1.20;;
46222;SDS011;31943;51.410;7.564;2023-04-03T15:26:52;2.60;;;1.02;;
46222;SDS011;31943;51.410;7.564;2023-04-03T15:29:18;2.75;;;1.20;;
46222;SDS011;31943;51.410;7.564;2023-04-03T15:31:44;3.15;;;1.05;;
46222;SDS011;31943;51.410;7.564;2023-04-03T15:34:10;3.97;;;1.13;;
46222;SDS011;31943;51.410;7.564;2023-04-03T15:36:38;2.53;;;1.35;;